メインページ
METAR-TAF:

METAR-TAF

空港 :

Arviat, ヌナブト準州, カナダ

緯度: 61-06N, 経度: 094-04W, 海抜: 10m

現時点の気象観測

当レポートは1時間5分前の04:00(UTC)に作成
北/北西の風 14kt
気温 -26°C
湿度 76%
気圧 1023 hPa
視程: 14.5km
晴天

METAR: CYEK 150400Z AUTO 34014KT 9SM CLR M26/M29 A3021 RMK SLP232

時間: 23:05 (05:05 UTC)

予報

当レポートは5時間27分前の23:38(UTC)に作成
予報は15日の 00時(UTC)から 15日の 12時(UTC)まで有効
北/北西の風 8kt
視程: 10km
高度1200ftの雲は散在している
15日の 00時(UTC)から 15日の 12時(UTC)まで一時的に
視程: 8.0km
高度1200ftの千切れ雲あり
氷晶

TAF: CYEK 142338Z 1500/1512 33008KT P6SM SCT012 TEMPO 1500/1512 5SM IC BKN012 RMK NXT FCST BY 150600Z

4,000以上の空港の気象観測と天気予報(METAR報とTAF報)

利用可能な観測所は地図上に黄色い丸と赤い丸で示す。

丸の上にカーソルを重ねると観測所名を参照できる。

次にクリックすると気象観測と天気予報を参照できる。

マップの切り替え:黒色「×」印の緑ボタンをクリックして拡大、「-」印の緑ボタンをクリックして縮小、緑色の三角印をクリックして隣りの地図に切り替え


METAR-TAF: